sensor_id;sensor_type;location;lat;lon;timestamp;P1;durP1;ratioP1;P2;durP2;ratioP2
15126;SDS011;7664;52.008;4.748;2024-01-06T00:00:44;7.50;;;5.07;;
15126;SDS011;7664;52.008;4.748;2024-01-06T00:03:15;7.20;;;4.65;;
15126;SDS011;7664;52.008;4.748;2024-01-06T00:05:44;7.13;;;5.15;;
15126;SDS011;7664;52.008;4.748;2024-01-06T00:08:13;6.93;;;5.00;;
15126;SDS011;7664;52.008;4.748;2024-01-06T00:10:42;6.90;;;4.63;;
15126;SDS011;7664;52.008;4.748;2024-01-06T00:13:10;7.80;;;5.00;;
15126;SDS011;7664;52.008;4.748;2024-01-06T00:15:39;7.38;;;5.07;;
15126;SDS011;7664;52.008;4.748;2024-01-06T00:18:09;7.50;;;4.53;;
15126;SDS011;7664;52.008;4.748;2024-01-06T00:20:38;8.05;;;5.13;;
15126;SDS011;7664;52.008;4.748;2024-01-06T00:23:07;5.15;;;3.83;;
15126;SDS011;7664;52.008;4.748;2024-01-06T00:25:42;6.28;;;4.43;;
15126;SDS011;7664;52.008;4.748;2024-01-06T00:28:11;6.47;;;3.92;;
15126;SDS011;7664;52.008;4.748;2024-01-06T00:30:42;5.43;;;3.33;;
15126;SDS011;7664;52.008;4.748;2024-01-06T00:33:12;7.03;;;4.10;;
15126;SDS011;7664;52.008;4.748;2024-01-06T00:35:43;6.05;;;3.75;;
15126;SDS011;7664;52.008;4.748;2024-01-06T00:38:12;5.90;;;4.07;;
15126;SDS011;7664;52.008;4.748;2024-01-06T00:40:42;6.00;;;3.63;;
15126;SDS011;7664;52.008;4.748;2024-01-06T00:43:11;5.40;;;3.30;;
15126;SDS011;7664;52.008;4.748;2024-01-06T00:45:40;6.10;;;4.05;;
15126;SDS011;7664;52.008;4.748;2024-01-06T00:48:12;4.53;;;3.38;;
15126;SDS011;7664;52.008;4.748;2024-01-06T00:50:41;6.32;;;3.58;;
15126;SDS011;7664;52.008;4.748;2024-01-06T00:53:21;6.45;;;4.28;;
15126;SDS011;7664;52.008;4.748;2024-01-06T00:55:49;5.40;;;3.78;;
15126;SDS011;7664;52.008;4.748;2024-01-06T00:58:18;6.25;;;3.33;;
15126;SDS011;7664;52.008;4.748;2024-01-06T01:00:47;7.53;;;3.40;;
15126;SDS011;7664;52.008;4.748;2024-01-06T01:03:18;4.68;;;3.60;;
15126;SDS011;7664;52.008;4.748;2024-01-06T01:05:46;7.32;;;2.90;;
15126;SDS011;7664;52.008;4.748;2024-01-06T01:08:15;5.45;;;3.35;;
15126;SDS011;7664;52.008;4.748;2024-01-06T01:10:48;7.43;;;4.25;;
15126;SDS011;7664;52.008;4.748;2024-01-06T01:13:19;5.40;;;3.60;;
15126;SDS011;7664;52.008;4.748;2024-01-06T01:15:50;2.83;;;2.28;;
15126;SDS011;7664;52.008;4.748;2024-01-06T01:18:22;2.80;;;2.20;;
15126;SDS011;7664;52.008;4.748;2024-01-06T01:20:53;6.10;;;2.20;;
15126;SDS011;7664;52.008;4.748;2024-01-06T01:23:22;5.85;;;1.98;;
15126;SDS011;7664;52.008;4.748;2024-01-06T01:25:50;3.08;;;2.58;;
15126;SDS011;7664;52.008;4.748;2024-01-06T01:28:21;3.85;;;2.58;;
15126;SDS011;7664;52.008;4.748;2024-01-06T01:30:50;3.50;;;2.40;;
15126;SDS011;7664;52.008;4.748;2024-01-06T01:33:19;4.80;;;2.97;;
15126;SDS011;7664;52.008;4.748;2024-01-06T01:35:50;7.63;;;3.80;;
15126;SDS011;7664;52.008;4.748;2024-01-06T01:38:18;6.15;;;3.53;;
15126;SDS011;7664;52.008;4.748;2024-01-06T01:40:47;5.93;;;3.83;;
15126;SDS011;7664;52.008;4.748;2024-01-06T01:43:18;6.32;;;3.45;;
15126;SDS011;7664;52.008;4.748;2024-01-06T01:45:48;7.30;;;3.90;;
15126;SDS011;7664;52.008;4.748;2024-01-06T01:48:22;7.90;;;3.95;;
15126;SDS011;7664;52.008;4.748;2024-01-06T01:50:54;6.25;;;4.18;;
15126;SDS011;7664;52.008;4.748;2024-01-06T01:53:27;7.10;;;3.67;;
15126;SDS011;7664;52.008;4.748;2024-01-06T01:56:03;6.53;;;4.38;;
15126;SDS011;7664;52.008;4.748;2024-01-06T01:58:32;5.95;;;4.15;;
15126;SDS011;7664;52.008;4.748;2024-01-06T02:01:01;6.97;;;4.75;;
15126;SDS011;7664;52.008;4.748;2024-01-06T02:03:32;7.32;;;4.10;;
15126;SDS011;7664;52.008;4.748;2024-01-06T02:06:02;5.60;;;3.70;;
15126;SDS011;7664;52.008;4.748;2024-01-06T02:08:31;4.18;;;3.03;;
15126;SDS011;7664;52.008;4.748;2024-01-06T02:11:02;5.68;;;3.35;;
15126;SDS011;7664;52.008;4.748;2024-01-06T02:13:34;5.68;;;3.33;;
15126;SDS011;7664;52.008;4.748;2024-01-06T02:16:04;3.13;;;2.50;;
15126;SDS011;7664;52.008;4.748;2024-01-06T02:18:36;3.88;;;1.92;;
15126;SDS011;7664;52.008;4.748;2024-01-06T02:21:06;5.88;;;3.45;;
15126;SDS011;7664;52.008;4.748;2024-01-06T02:23:36;3.90;;;3.10;;
15126;SDS011;7664;52.008;4.748;2024-01-06T02:26:05;4.43;;;3.28;;
15126;SDS011;7664;52.008;4.748;2024-01-06T02:28:35;3.55;;;2.63;;
15126;SDS011;7664;52.008;4.748;2024-01-06T02:31:03;4.47;;;2.80;;
15126;SDS011;7664;52.008;4.748;2024-01-06T02:33:32;5.40;;;3.13;;
15126;SDS011;7664;52.008;4.748;2024-01-06T02:36:04;7.50;;;3.30;;
15126;SDS011;7664;52.008;4.748;2024-01-06T02:38:32;5.90;;;2.80;;
15126;SDS011;7664;52.008;4.748;2024-01-06T02:41:02;4.70;;;3.40;;
15126;SDS011;7664;52.008;4.748;2024-01-06T02:43:31;4.13;;;3.67;;
15126;SDS011;7664;52.008;4.748;2024-01-06T02:45:59;6.57;;;4.50;;
15126;SDS011;7664;52.008;4.748;2024-01-06T02:48:30;4.70;;;4.07;;
15126;SDS011;7664;52.008;4.748;2024-01-06T02:50:58;4.40;;;3.67;;
15126;SDS011;7664;52.008;4.748;2024-01-06T02:53:29;5.47;;;4.15;;
15126;SDS011;7664;52.008;4.748;2024-01-06T02:56:00;5.97;;;4.10;;
15126;SDS011;7664;52.008;4.748;2024-01-06T02:58:30;7.50;;;4.32;;
15126;SDS011;7664;52.008;4.748;2024-01-06T03:01:03;7.40;;;4.88;;
15126;SDS011;7664;52.008;4.748;2024-01-06T03:03:32;6.47;;;3.95;;
15126;SDS011;7664;52.008;4.748;2024-01-06T03:06:01;6.07;;;3.67;;
15126;SDS011;7664;52.008;4.748;2024-01-06T03:08:29;5.97;;;4.80;;
15126;SDS011;7664;52.008;4.748;2024-01-06T03:10:58;9.90;;;5.10;;
15126;SDS011;7664;52.008;4.748;2024-01-06T03:13:26;9.75;;;5.10;;
15126;SDS011;7664;52.008;4.748;2024-01-06T03:15:56;5.70;;;4.75;;
15126;SDS011;7664;52.008;4.748;2024-01-06T03:18:25;7.72;;;5.50;;
15126;SDS011;7664;52.008;4.748;2024-01-06T03:20:54;8.82;;;6.45;;
15126;SDS011;7664;52.008;4.748;2024-01-06T03:23:22;7.15;;;5.22;;
15126;SDS011;7664;52.008;4.748;2024-01-06T03:25:51;8.13;;;5.45;;
15126;SDS011;7664;52.008;4.748;2024-01-06T03:28:23;7.85;;;5.20;;
15126;SDS011;7664;52.008;4.748;2024-01-06T03:30:51;4.68;;;3.92;;
15126;SDS011;7664;52.008;4.748;2024-01-06T03:33:21;6.78;;;4.70;;
15126;SDS011;7664;52.008;4.748;2024-01-06T03:35:50;10.27;;;4.95;;
15126;SDS011;7664;52.008;4.748;2024-01-06T03:38:19;6.07;;;5.00;;
15126;SDS011;7664;52.008;4.748;2024-01-06T03:40:47;6.72;;;4.93;;
15126;SDS011;7664;52.008;4.748;2024-01-06T03:43:18;8.85;;;5.68;;
15126;SDS011;7664;52.008;4.748;2024-01-06T03:45:49;11.38;;;6.63;;
15126;SDS011;7664;52.008;4.748;2024-01-06T03:48:18;7.80;;;5.05;;
15126;SDS011;7664;52.008;4.748;2024-01-06T03:50:48;6.93;;;5.55;;
15126;SDS011;7664;52.008;4.748;2024-01-06T03:53:16;7.43;;;5.30;;
15126;SDS011;7664;52.008;4.748;2024-01-06T03:55:46;6.13;;;5.43;;
15126;SDS011;7664;52.008;4.748;2024-01-06T03:58:14;9.88;;;4.55;;
15126;SDS011;7664;52.008;4.748;2024-01-06T04:00:43;9.43;;;4.80;;
15126;SDS011;7664;52.008;4.748;2024-01-06T04:03:12;7.20;;;4.80;;
15126;SDS011;7664;52.008;4.748;2024-01-06T04:05:40;8.68;;;5.07;;
15126;SDS011;7664;52.008;4.748;2024-01-06T04:08:11;7.57;;;5.25;;
15126;SDS011;7664;52.008;4.748;2024-01-06T04:10:39;10.48;;;5.93;;
15126;SDS011;7664;52.008;4.748;2024-01-06T04:13:10;7.10;;;5.47;;
15126;SDS011;7664;52.008;4.748;2024-01-06T04:15:38;7.60;;;5.65;;
15126;SDS011;7664;52.008;4.748;2024-01-06T04:18:07;9.10;;;5.72;;
15126;SDS011;7664;52.008;4.748;2024-01-06T04:20:36;10.95;;;5.80;;
15126;SDS011;7664;52.008;4.748;2024-01-06T04:23:05;6.75;;;5.18;;
15126;SDS011;7664;52.008;4.748;2024-01-06T04:25:39;7.75;;;5.50;;
15126;SDS011;7664;52.008;4.748;2024-01-06T04:28:08;8.30;;;4.45;;
15126;SDS011;7664;52.008;4.748;2024-01-06T04:30:37;5.15;;;4.30;;
15126;SDS011;7664;52.008;4.748;2024-01-06T04:33:08;7.00;;;4.57;;
15126;SDS011;7664;52.008;4.748;2024-01-06T04:35:37;5.43;;;4.32;;
15126;SDS011;7664;52.008;4.748;2024-01-06T04:38:06;7.03;;;4.88;;
15126;SDS011;7664;52.008;4.748;2024-01-06T04:40:40;5.43;;;3.60;;
15126;SDS011;7664;52.008;4.748;2024-01-06T04:43:09;5.00;;;3.90;;
15126;SDS011;7664;52.008;4.748;2024-01-06T04:45:38;5.47;;;4.22;;
15126;SDS011;7664;52.008;4.748;2024-01-06T04:48:09;6.20;;;3.88;;
15126;SDS011;7664;52.008;4.748;2024-01-06T04:50:43;5.80;;;4.22;;
15126;SDS011;7664;52.008;4.748;2024-01-06T04:53:12;6.85;;;4.40;;
15126;SDS011;7664;52.008;4.748;2024-01-06T04:55:42;8.23;;;4.65;;
15126;SDS011;7664;52.008;4.748;2024-01-06T04:58:13;8.68;;;4.90;;
15126;SDS011;7664;52.008;4.748;2024-01-06T05:00:41;9.98;;;5.18;;
15126;SDS011;7664;52.008;4.748;2024-01-06T05:03:16;7.65;;;5.63;;
15126;SDS011;7664;52.008;4.748;2024-01-06T05:05:45;8.25;;;4.75;;
15126;SDS011;7664;52.008;4.748;2024-01-06T05:08:13;5.45;;;4.28;;
15126;SDS011;7664;52.008;4.748;2024-01-06T05:10:45;5.07;;;3.88;;
15126;SDS011;7664;52.008;4.748;2024-01-06T05:13:15;5.13;;;3.85;;
15126;SDS011;7664;52.008;4.748;2024-01-06T05:15:46;3.58;;;3.08;;
15126;SDS011;7664;52.008;4.748;2024-01-06T05:18:17;5.07;;;3.72;;
15126;SDS011;7664;52.008;4.748;2024-01-06T05:20:46;5.22;;;3.55;;
15126;SDS011;7664;52.008;4.748;2024-01-06T05:23:14;4.47;;;3.75;;
15126;SDS011;7664;52.008;4.748;2024-01-06T05:25:47;7.13;;;3.80;;
15126;SDS011;7664;52.008;4.748;2024-01-06T05:28:15;6.22;;;3.67;;
15126;SDS011;7664;52.008;4.748;2024-01-06T05:30:44;4.07;;;2.92;;
15126;SDS011;7664;52.008;4.748;2024-01-06T05:33:12;6.25;;;4.20;;
15126;SDS011;7664;52.008;4.748;2024-01-06T05:35:41;3.88;;;3.25;;
15126;SDS011;7664;52.008;4.748;2024-01-06T05:38:10;3.75;;;3.10;;
15126;SDS011;7664;52.008;4.748;2024-01-06T05:40:39;4.68;;;3.25;;
15126;SDS011;7664;52.008;4.748;2024-01-06T05:43:15;4.30;;;3.33;;
15126;SDS011;7664;52.008;4.748;2024-01-06T05:45:46;5.32;;;3.88;;
15126;SDS011;7664;52.008;4.748;2024-01-06T05:48:14;6.85;;;3.70;;
15126;SDS011;7664;52.008;4.748;2024-01-06T05:50:46;5.68;;;4.07;;
15126;SDS011;7664;52.008;4.748;2024-01-06T05:53:14;11.57;;;5.35;;
15126;SDS011;7664;52.008;4.748;2024-01-06T05:55:44;7.13;;;4.10;;
15126;SDS011;7664;52.008;4.748;2024-01-06T05:58:17;8.30;;;4.35;;
15126;SDS011;7664;52.008;4.748;2024-01-06T06:00:45;7.20;;;4.50;;
15126;SDS011;7664;52.008;4.748;2024-01-06T06:03:15;5.80;;;4.20;;
15126;SDS011;7664;52.008;4.748;2024-01-06T06:05:46;6.32;;;4.22;;
15126;SDS011;7664;52.008;4.748;2024-01-06T06:08:14;5.10;;;3.88;;
15126;SDS011;7664;52.008;4.748;2024-01-06T06:10:43;4.32;;;3.20;;
15126;SDS011;7664;52.008;4.748;2024-01-06T06:13:29;7.78;;;3.83;;
15126;SDS011;7664;52.008;4.748;2024-01-06T06:15:59;4.90;;;3.38;;
15126;SDS011;7664;52.008;4.748;2024-01-06T06:18:28;7.38;;;3.92;;
15126;SDS011;7664;52.008;4.748;2024-01-06T06:20:57;6.95;;;3.50;;
15126;SDS011;7664;52.008;4.748;2024-01-06T06:23:29;5.22;;;3.70;;
15126;SDS011;7664;52.008;4.748;2024-01-06T06:25:58;4.85;;;3.42;;
15126;SDS011;7664;52.008;4.748;2024-01-06T06:28:28;7.75;;;4.05;;
15126;SDS011;7664;52.008;4.748;2024-01-06T06:30:57;6.72;;;4.25;;
15126;SDS011;7664;52.008;4.748;2024-01-06T06:33:25;6.93;;;3.83;;
15126;SDS011;7664;52.008;4.748;2024-01-06T06:35:57;4.80;;;3.88;;
15126;SDS011;7664;52.008;4.748;2024-01-06T06:38:28;8.15;;;4.38;;
15126;SDS011;7664;52.008;4.748;2024-01-06T06:40:56;6.47;;;3.67;;
15126;SDS011;7664;52.008;4.748;2024-01-06T06:43:25;5.97;;;3.95;;
15126;SDS011;7664;52.008;4.748;2024-01-06T06:45:55;6.13;;;3.88;;
15126;SDS011;7664;52.008;4.748;2024-01-06T06:48:24;6.00;;;4.80;;
15126;SDS011;7664;52.008;4.748;2024-01-06T06:50:52;5.85;;;4.75;;
15126;SDS011;7664;52.008;4.748;2024-01-06T06:53:21;7.38;;;5.57;;
15126;SDS011;7664;52.008;4.748;2024-01-06T06:55:50;7.35;;;4.72;;
15126;SDS011;7664;52.008;4.748;2024-01-06T06:58:18;6.65;;;5.13;;
15126;SDS011;7664;52.008;4.748;2024-01-06T07:00:47;7.65;;;5.03;;
15126;SDS011;7664;52.008;4.748;2024-01-06T07:03:20;8.20;;;5.70;;
15126;SDS011;7664;52.008;4.748;2024-01-06T07:05:49;6.75;;;5.13;;
15126;SDS011;7664;52.008;4.748;2024-01-06T07:08:20;6.07;;;4.93;;
15126;SDS011;7664;52.008;4.748;2024-01-06T07:10:49;6.38;;;4.63;;
15126;SDS011;7664;52.008;4.748;2024-01-06T07:13:18;5.75;;;4.60;;
15126;SDS011;7664;52.008;4.748;2024-01-06T07:15:46;6.72;;;4.93;;
15126;SDS011;7664;52.008;4.748;2024-01-06T07:18:17;9.45;;;4.85;;
15126;SDS011;7664;52.008;4.748;2024-01-06T07:20:51;7.65;;;4.85;;
15126;SDS011;7664;52.008;4.748;2024-01-06T07:23:19;9.07;;;5.43;;
15126;SDS011;7664;52.008;4.748;2024-01-06T07:25:50;6.25;;;4.93;;
15126;SDS011;7664;52.008;4.748;2024-01-06T07:28:18;11.77;;;5.15;;
15126;SDS011;7664;52.008;4.748;2024-01-06T07:30:49;6.10;;;4.50;;
15126;SDS011;7664;52.008;4.748;2024-01-06T07:33:18;7.05;;;5.28;;
15126;SDS011;7664;52.008;4.748;2024-01-06T07:35:51;8.02;;;5.35;;
15126;SDS011;7664;52.008;4.748;2024-01-06T07:38:24;8.27;;;5.28;;
15126;SDS011;7664;52.008;4.748;2024-01-06T07:40:58;8.20;;;4.82;;
15126;SDS011;7664;52.008;4.748;2024-01-06T07:43:26;6.47;;;5.18;;
15126;SDS011;7664;52.008;4.748;2024-01-06T07:45:57;6.90;;;5.00;;
15126;SDS011;7664;52.008;4.748;2024-01-06T07:48:28;8.70;;;5.07;;
15126;SDS011;7664;52.008;4.748;2024-01-06T07:51:00;9.05;;;6.45;;
15126;SDS011;7664;52.008;4.748;2024-01-06T07:53:29;7.05;;;4.75;;
15126;SDS011;7664;52.008;4.748;2024-01-06T07:55:58;8.25;;;5.28;;
15126;SDS011;7664;52.008;4.748;2024-01-06T07:58:26;8.40;;;5.20;;
15126;SDS011;7664;52.008;4.748;2024-01-06T08:00:55;6.03;;;4.57;;
15126;SDS011;7664;52.008;4.748;2024-01-06T08:03:29;8.30;;;5.47;;
15126;SDS011;7664;52.008;4.748;2024-01-06T08:05:58;6.70;;;5.07;;
15126;SDS011;7664;52.008;4.748;2024-01-06T08:08:33;7.13;;;5.10;;
15126;SDS011;7664;52.008;4.748;2024-01-06T08:11:03;8.23;;;4.95;;
15126;SDS011;7664;52.008;4.748;2024-01-06T08:13:35;8.80;;;5.40;;
15126;SDS011;7664;52.008;4.748;2024-01-06T08:16:03;10.70;;;5.60;;
15126;SDS011;7664;52.008;4.748;2024-01-06T08:18:32;8.52;;;4.60;;
15126;SDS011;7664;52.008;4.748;2024-01-06T08:21:01;8.00;;;5.10;;
15126;SDS011;7664;52.008;4.748;2024-01-06T08:23:30;6.72;;;4.80;;
15126;SDS011;7664;52.008;4.748;2024-01-06T08:26:02;6.90;;;5.25;;
15126;SDS011;7664;52.008;4.748;2024-01-06T08:28:31;10.32;;;5.50;;
15126;SDS011;7664;52.008;4.748;2024-01-06T08:31:04;6.07;;;4.30;;
15126;SDS011;7664;52.008;4.748;2024-01-06T08:33:33;6.30;;;4.40;;
15126;SDS011;7664;52.008;4.748;2024-01-06T08:36:02;7.43;;;5.47;;
15126;SDS011;7664;52.008;4.748;2024-01-06T08:38:30;7.07;;;4.20;;
15126;SDS011;7664;52.008;4.748;2024-01-06T08:41:05;6.55;;;4.22;;
15126;SDS011;7664;52.008;4.748;2024-01-06T08:43:33;7.68;;;4.40;;
15126;SDS011;7664;52.008;4.748;2024-01-06T08:46:02;7.85;;;4.43;;
15126;SDS011;7664;52.008;4.748;2024-01-06T08:48:32;9.02;;;4.97;;
15126;SDS011;7664;52.008;4.748;2024-01-06T08:51:03;6.88;;;5.25;;
15126;SDS011;7664;52.008;4.748;2024-01-06T08:53:32;8.52;;;4.60;;
15126;SDS011;7664;52.008;4.748;2024-01-06T08:56:01;5.70;;;4.38;;
15126;SDS011;7664;52.008;4.748;2024-01-06T08:58:30;7.00;;;4.28;;
15126;SDS011;7664;52.008;4.748;2024-01-06T09:00:59;6.90;;;4.80;;
15126;SDS011;7664;52.008;4.748;2024-01-06T09:03:30;6.85;;;4.93;;
15126;SDS011;7664;52.008;4.748;2024-01-06T09:05:59;6.53;;;4.57;;
15126;SDS011;7664;52.008;4.748;2024-01-06T09:08:28;5.43;;;4.63;;
15126;SDS011;7664;52.008;4.748;2024-01-06T09:10:56;6.38;;;4.40;;
15126;SDS011;7664;52.008;4.748;2024-01-06T09:13:25;6.90;;;4.60;;
15126;SDS011;7664;52.008;4.748;2024-01-06T09:15:55;7.70;;;4.93;;
15126;SDS011;7664;52.008;4.748;2024-01-06T09:18:30;7.53;;;4.38;;
15126;SDS011;7664;52.008;4.748;2024-01-06T09:20:59;7.28;;;4.97;;
15126;SDS011;7664;52.008;4.748;2024-01-06T09:23:30;6.25;;;3.65;;
15126;SDS011;7664;52.008;4.748;2024-01-06T09:26:01;6.13;;;3.47;;
15126;SDS011;7664;52.008;4.748;2024-01-06T09:28:29;5.97;;;4.07;;
15126;SDS011;7664;52.008;4.748;2024-01-06T09:31:02;6.75;;;3.47;;
15126;SDS011;7664;52.008;4.748;2024-01-06T09:33:33;7.63;;;4.03;;
15126;SDS011;7664;52.008;4.748;2024-01-06T09:36:01;6.80;;;3.15;;
15126;SDS011;7664;52.008;4.748;2024-01-06T09:38:30;6.68;;;4.05;;
15126;SDS011;7664;52.008;4.748;2024-01-06T09:40:59;6.40;;;4.18;;
15126;SDS011;7664;52.008;4.748;2024-01-06T09:43:28;5.40;;;3.30;;
15126;SDS011;7664;52.008;4.748;2024-01-06T09:46:10;6.07;;;3.63;;
15126;SDS011;7664;52.008;4.748;2024-01-06T09:48:43;7.93;;;4.53;;
15126;SDS011;7664;52.008;4.748;2024-01-06T09:51:16;6.63;;;3.70;;
15126;SDS011;7664;52.008;4.748;2024-01-06T09:53:47;5.07;;;3.03;;
15126;SDS011;7664;52.008;4.748;2024-01-06T09:56:16;5.38;;;3.50;;
15126;SDS011;7664;52.008;4.748;2024-01-06T09:58:45;5.22;;;3.15;;
15126;SDS011;7664;52.008;4.748;2024-01-06T10:01:15;5.43;;;3.60;;
15126;SDS011;7664;52.008;4.748;2024-01-06T10:03:47;7.47;;;3.65;;
15126;SDS011;7664;52.008;4.748;2024-01-06T10:06:19;6.07;;;3.03;;
15126;SDS011;7664;52.008;4.748;2024-01-06T10:08:48;4.78;;;2.72;;
15126;SDS011;7664;52.008;4.748;2024-01-06T10:11:17;9.23;;;3.95;;
15126;SDS011;7664;52.008;4.748;2024-01-06T10:13:48;6.35;;;3.20;;
15126;SDS011;7664;52.008;4.748;2024-01-06T10:16:20;6.15;;;3.17;;
15126;SDS011;7664;52.008;4.748;2024-01-06T10:18:49;6.60;;;3.20;;
15126;SDS011;7664;52.008;4.748;2024-01-06T10:21:20;5.65;;;2.85;;
15126;SDS011;7664;52.008;4.748;2024-01-06T10:23:55;4.55;;;3.25;;
15126;SDS011;7664;52.008;4.748;2024-01-06T10:26:26;7.15;;;3.13;;
15126;SDS011;7664;52.008;4.748;2024-01-06T10:28:55;5.53;;;3.42;;
15126;SDS011;7664;52.008;4.748;2024-01-06T10:31:27;5.75;;;3.20;;
15126;SDS011;7664;52.008;4.748;2024-01-06T10:33:55;5.63;;;3.15;;
15126;SDS011;7664;52.008;4.748;2024-01-06T10:36:25;5.32;;;3.42;;
15126;SDS011;7664;52.008;4.748;2024-01-06T10:38:54;7.03;;;3.78;;
15126;SDS011;7664;52.008;4.748;2024-01-06T10:41:23;4.53;;;3.28;;
15126;SDS011;7664;52.008;4.748;2024-01-06T10:43:53;7.57;;;3.75;;
15126;SDS011;7664;52.008;4.748;2024-01-06T10:46:22;5.43;;;3.28;;
15126;SDS011;7664;52.008;4.748;2024-01-06T10:48:54;8.50;;;3.65;;
15126;SDS011;7664;52.008;4.748;2024-01-06T10:51:23;5.55;;;3.58;;
15126;SDS011;7664;52.008;4.748;2024-01-06T10:53:54;4.53;;;2.75;;
15126;SDS011;7664;52.008;4.748;2024-01-06T10:56:23;4.55;;;2.90;;
15126;SDS011;7664;52.008;4.748;2024-01-06T10:58:53;3.60;;;2.63;;
15126;SDS011;7664;52.008;4.748;2024-01-06T11:01:22;4.72;;;2.92;;
15126;SDS011;7664;52.008;4.748;2024-01-06T11:03:57;7.07;;;2.88;;
15126;SDS011;7664;52.008;4.748;2024-01-06T11:06:26;5.50;;;2.70;;
15126;SDS011;7664;52.008;4.748;2024-01-06T11:08:59;5.07;;;2.42;;
15126;SDS011;7664;52.008;4.748;2024-01-06T11:11:28;2.90;;;2.30;;
15126;SDS011;7664;52.008;4.748;2024-01-06T11:16:43;5.25;;;3.25;;
15126;SDS011;7664;52.008;4.748;2024-01-06T11:21:59;5.75;;;3.22;;
15126;SDS011;7664;52.008;4.748;2024-01-06T11:24:46;5.85;;;3.40;;
15126;SDS011;7664;52.008;4.748;2024-01-06T11:27:19;7.20;;;4.50;;
15126;SDS011;7664;52.008;4.748;2024-01-06T11:29:50;5.68;;;3.45;;
15126;SDS011;7664;52.008;4.748;2024-01-06T11:32:24;4.85;;;3.72;;
15126;SDS011;7664;52.008;4.748;2024-01-06T11:35:05;7.28;;;3.80;;
15126;SDS011;7664;52.008;4.748;2024-01-06T11:37:37;5.95;;;4.20;;
15126;SDS011;7664;52.008;4.748;2024-01-06T11:40:09;4.68;;;3.17;;
15126;SDS011;7664;52.008;4.748;2024-01-06T11:42:41;4.15;;;3.28;;
15126;SDS011;7664;52.008;4.748;2024-01-06T11:45:10;5.22;;;3.30;;
15126;SDS011;7664;52.008;4.748;2024-01-06T11:47:43;6.85;;;3.80;;
15126;SDS011;7664;52.008;4.748;2024-01-06T11:50:16;4.97;;;3.30;;
15126;SDS011;7664;52.008;4.748;2024-01-06T11:52:46;5.65;;;3.40;;
15126;SDS011;7664;52.008;4.748;2024-01-06T11:55:15;4.82;;;3.10;;
15126;SDS011;7664;52.008;4.748;2024-01-06T11:57:46;4.22;;;3.22;;
15126;SDS011;7664;52.008;4.748;2024-01-06T12:00:16;5.70;;;3.03;;
15126;SDS011;7664;52.008;4.748;2024-01-06T12:02:44;4.05;;;2.55;;
15126;SDS011;7664;52.008;4.748;2024-01-06T12:05:13;4.03;;;2.85;;
15126;SDS011;7664;52.008;4.748;2024-01-06T12:07:54;4.75;;;2.80;;
15126;SDS011;7664;52.008;4.748;2024-01-06T12:10:25;6.40;;;3.28;;
15126;SDS011;7664;52.008;4.748;2024-01-06T12:12:55;4.32;;;3.10;;
15126;SDS011;7664;52.008;4.748;2024-01-06T12:15:26;4.75;;;3.85;;
15126;SDS011;7664;52.008;4.748;2024-01-06T12:17:54;5.65;;;3.47;;
15126;SDS011;7664;52.008;4.748;2024-01-06T12:20:23;5.13;;;3.20;;
15126;SDS011;7664;52.008;4.748;2024-01-06T12:22:54;4.38;;;2.83;;
15126;SDS011;7664;52.008;4.748;2024-01-06T12:25:23;7.28;;;3.50;;
15126;SDS011;7664;52.008;4.748;2024-01-06T12:27:55;6.15;;;3.10;;
15126;SDS011;7664;52.008;4.748;2024-01-06T12:30:27;5.70;;;3.08;;
15126;SDS011;7664;52.008;4.748;2024-01-06T12:32:58;8.35;;;2.83;;
15126;SDS011;7664;52.008;4.748;2024-01-06T12:35:28;10.00;;;3.22;;
15126;SDS011;7664;52.008;4.748;2024-01-06T12:37:58;3.33;;;2.60;;
15126;SDS011;7664;52.008;4.748;2024-01-06T12:40:27;4.18;;;2.45;;
15126;SDS011;7664;52.008;4.748;2024-01-06T12:42:56;5.70;;;2.75;;
15126;SDS011;7664;52.008;4.748;2024-01-06T12:45:27;4.60;;;2.75;;
15126;SDS011;7664;52.008;4.748;2024-01-06T12:47:58;4.85;;;3.33;;
15126;SDS011;7664;52.008;4.748;2024-01-06T12:50:26;5.50;;;3.00;;
15126;SDS011;7664;52.008;4.748;2024-01-06T12:52:55;5.63;;;3.95;;
15126;SDS011;7664;52.008;4.748;2024-01-06T12:55:27;4.68;;;3.03;;
15126;SDS011;7664;52.008;4.748;2024-01-06T12:57:58;3.92;;;2.78;;
15126;SDS011;7664;52.008;4.748;2024-01-06T13:00:30;5.50;;;2.50;;
15126;SDS011;7664;52.008;4.748;2024-01-06T13:03:02;5.38;;;3.20;;
15126;SDS011;7664;52.008;4.748;2024-01-06T13:05:32;4.57;;;3.30;;
15126;SDS011;7664;52.008;4.748;2024-01-06T13:08:04;6.60;;;3.45;;
15126;SDS011;7664;52.008;4.748;2024-01-06T13:10:36;5.45;;;2.83;;
15126;SDS011;7664;52.008;4.748;2024-01-06T13:13:07;3.20;;;2.78;;
15126;SDS011;7664;52.008;4.748;2024-01-06T13:15:36;2.50;;;2.00;;
15126;SDS011;7664;52.008;4.748;2024-01-06T13:18:05;3.95;;;2.35;;
15126;SDS011;7664;52.008;4.748;2024-01-06T13:20:34;4.25;;;2.70;;
15126;SDS011;7664;52.008;4.748;2024-01-06T13:23:05;2.97;;;2.10;;
15126;SDS011;7664;52.008;4.748;2024-01-06T13:25:34;3.47;;;1.95;;
15126;SDS011;7664;52.008;4.748;2024-01-06T13:28:07;3.28;;;1.67;;
15126;SDS011;7664;52.008;4.748;2024-01-06T13:30:36;3.03;;;1.90;;
15126;SDS011;7664;52.008;4.748;2024-01-06T13:33:06;4.55;;;2.10;;
15126;SDS011;7664;52.008;4.748;2024-01-06T13:35:36;2.33;;;1.60;;
15126;SDS011;7664;52.008;4.748;2024-01-06T13:38:07;3.92;;;2.45;;
15126;SDS011;7664;52.008;4.748;2024-01-06T13:40:40;3.88;;;2.13;;
15126;SDS011;7664;52.008;4.748;2024-01-06T13:43:11;2.58;;;1.60;;
15126;SDS011;7664;52.008;4.748;2024-01-06T13:45:42;2.55;;;2.13;;
15126;SDS011;7664;52.008;4.748;2024-01-06T13:48:11;2.65;;;1.88;;
15126;SDS011;7664;52.008;4.748;2024-01-06T13:50:43;3.72;;;2.05;;
15126;SDS011;7664;52.008;4.748;2024-01-06T13:53:12;6.78;;;2.72;;
15126;SDS011;7664;52.008;4.748;2024-01-06T13:55:43;3.78;;;2.67;;
15126;SDS011;7664;52.008;4.748;2024-01-06T13:58:14;4.88;;;1.90;;
15126;SDS011;7664;52.008;4.748;2024-01-06T14:00:45;4.10;;;2.25;;
15126;SDS011;7664;52.008;4.748;2024-01-06T14:03:15;3.63;;;2.22;;
15126;SDS011;7664;52.008;4.748;2024-01-06T14:05:45;4.13;;;2.53;;
15126;SDS011;7664;52.008;4.748;2024-01-06T14:08:14;5.63;;;2.53;;
15126;SDS011;7664;52.008;4.748;2024-01-06T14:10:43;5.07;;;2.60;;
15126;SDS011;7664;52.008;4.748;2024-01-06T14:13:15;5.05;;;2.80;;
15126;SDS011;7664;52.008;4.748;2024-01-06T14:15:43;4.03;;;2.60;;
15126;SDS011;7664;52.008;4.748;2024-01-06T14:18:12;5.68;;;2.85;;
15126;SDS011;7664;52.008;4.748;2024-01-06T14:20:43;6.35;;;3.13;;
15126;SDS011;7664;52.008;4.748;2024-01-06T14:23:16;4.03;;;2.35;;
15126;SDS011;7664;52.008;4.748;2024-01-06T14:25:47;4.28;;;2.45;;
15126;SDS011;7664;52.008;4.748;2024-01-06T14:28:17;5.10;;;2.58;;
15126;SDS011;7664;52.008;4.748;2024-01-06T14:30:45;4.63;;;3.17;;
15126;SDS011;7664;52.008;4.748;2024-01-06T14:33:14;7.75;;;4.50;;
15126;SDS011;7664;52.008;4.748;2024-01-06T14:35:45;24.90;;;17.75;;
15126;SDS011;7664;52.008;4.748;2024-01-06T14:38:14;19.13;;;12.00;;
15126;SDS011;7664;52.008;4.748;2024-01-06T14:40:43;31.13;;;20.88;;
15126;SDS011;7664;52.008;4.748;2024-01-06T14:43:11;15.85;;;9.40;;
15126;SDS011;7664;52.008;4.748;2024-01-06T14:45:41;4.22;;;2.80;;
15126;SDS011;7664;52.008;4.748;2024-01-06T14:48:10;6.38;;;3.50;;
15126;SDS011;7664;52.008;4.748;2024-01-06T14:50:40;3.65;;;2.58;;
15126;SDS011;7664;52.008;4.748;2024-01-06T14:53:10;4.10;;;2.80;;
15126;SDS011;7664;52.008;4.748;2024-01-06T14:55:39;4.68;;;2.83;;
15126;SDS011;7664;52.008;4.748;2024-01-06T14:58:08;4.28;;;2.60;;
15126;SDS011;7664;52.008;4.748;2024-01-06T15:00:37;4.78;;;2.60;;
15126;SDS011;7664;52.008;4.748;2024-01-06T15:03:09;4.47;;;2.95;;
15126;SDS011;7664;52.008;4.748;2024-01-06T15:05:38;7.50;;;3.55;;
15126;SDS011;7664;52.008;4.748;2024-01-06T15:08:07;3.90;;;2.60;;
15126;SDS011;7664;52.008;4.748;2024-01-06T15:10:36;5.75;;;3.17;;
15126;SDS011;7664;52.008;4.748;2024-01-06T15:13:05;5.20;;;2.80;;
15126;SDS011;7664;52.008;4.748;2024-01-06T15:15:33;5.35;;;3.15;;
15126;SDS011;7664;52.008;4.748;2024-01-06T15:18:02;5.07;;;3.50;;
15126;SDS011;7664;52.008;4.748;2024-01-06T15:20:33;7.80;;;3.30;;
15126;SDS011;7664;52.008;4.748;2024-01-06T15:23:03;5.43;;;3.63;;